Flight Track Log - Related Links

Times and Time Zones

All times are in EDT time to prevent confusion due to time zone crossing. See the EJA221 flight status page for this flight to view local times or setup timezone preferences in your user account.

Time Position Orientation Groundspeed Altitude Reporting Facility
EDT Latitude Longitude Course Direction KTS MPH feet Rate Location/Type
Thu 04:14:04 PM 34.1981 -119.3069 266° West 225 259 2,600  Level Los Angeles Center
Thu 04:15:18 PM 34.1917 -119.3917 265° West 243 280 5,200 2,691 Climbing Los Angeles Center
Thu 04:16:20 PM 34.1819 -119.4861 263° West 266 306 8,700 2,784 Climbing Los Angeles Center
Thu 04:17:23 PM 34.1911 -119.6075 275° West 332 382 11,000 2,160 Climbing Los Angeles Center
Thu 04:18:25 PM 34.2844 -119.6003 North 375 432 13,200 2,274 Climbing Los Angeles Center
Thu 04:19:27 PM 34.3047 -119.4800 78° East 370 426 15,700 2,516 Climbing Los Angeles Center
Thu 04:20:29 PM 34.3128 -119.3236 86° East 388 447 18,400 2,032 Climbing Los Angeles Center
Thu 04:21:31 PM 34.3322 -119.1939 80° East 394 453 19,900 1,500 Climbing Los Angeles Center
Thu 04:22:33 PM 34.3694 -119.0600 71° East 416 479 21,500 1,488 Climbing Los Angeles Center
Thu 04:23:36 PM 34.4064 -118.9211 72° East 426 490 23,000 720 Climbing Los Angeles Center
Thu 04:24:38 PM 34.4431 -118.7825 72° East 429 494 23,000  Level Los Angeles Center
Thu 04:25:40 PM 34.4719 -118.6719 72° East 430 495 23,000 435 Level Los Angeles Center
Thu 04:26:42 PM 34.5239 -118.4786 72° East 430 495 23,900 1,248 Climbing Los Angeles Center
Thu 04:27:45 PM 34.5614 -118.3378 72° East 436 502 25,600 1,742 Climbing Los Angeles Center
Thu 04:28:46 PM 34.5983 -118.1931 73° East 446 513 27,500 1,415 Climbing Los Angeles Center
Thu 04:29:48 PM 34.6250 -118.0917 72° East 447 514 28,500 1,548 Climbing Los Angeles Center
Thu 04:30:50 PM 34.6744 -117.8761 74° East 476 548 30,700 2,274 Climbing Los Angeles Center
Thu 04:31:52 PM 34.7094 -117.7211 75° East 482 555 33,200 2,256 Climbing Los Angeles Center
Thu 04:32:55 PM 34.7428 -117.5706 75° East 470 541 35,400 1,728 Climbing Los Angeles Center
Thu 04:33:57 PM 34.7764 -117.4183 75° East 471 542 36,800 1,935 Climbing Los Angeles Center
Thu 04:34:59 PM 34.8169 -117.2372 75° East 466 536 39,400 1,984 Climbing Los Angeles Center
Thu 04:36:01 PM 34.8489 -117.0872 75° East 460 529 40,900 774 Climbing Los Angeles Center
Thu 04:37:03 PM 34.8806 -116.9381 75° East 459 528 41,000 44 Climbing Los Angeles Center
Thu 04:38:17 PM 34.9372 -116.8014 63° Northeast 454 522 41,000  Level Los Angeles Center
Thu 04:39:32 PM 35.0406 -116.6575 49° Northeast 467 537 41,000  Level Los Angeles Center
Thu 04:40:46 PM 35.1578 -116.4922 49° Northeast 466 536 41,000  Level Los Angeles Center
Thu 04:41:49 PM 35.2575 -116.3497 49° Northeast 464 534 41,000  Level Los Angeles Center
Thu 04:42:51 PM 35.3411 -116.2325 49° Northeast 461 531 41,000  Level Los Angeles Center
Thu 04:43:53 PM 35.4214 -116.1125 51° Northeast 459 528 41,000  Level Los Angeles Center
Thu 04:44:55 PM 35.5089 -115.9906 49° Northeast 461 531 41,000  Level Los Angeles Center
Thu 04:45:57 PM 35.6064 -115.8481 50° Northeast 460 529 41,000  Level Los Angeles Center
Thu 04:46:59 PM 35.6886 -115.7303 49° Northeast 457 526 41,000  Level Los Angeles Center
Thu 04:48:01 PM 35.7703 -115.6117 50° Northeast 457 526 41,000  Level Los Angeles Center
Thu 04:49:04 PM 35.8514 -115.4928 50° Northeast 456 525 41,000  Level Los Angeles Center
Thu 04:50:06 PM 35.9328 -115.3733 50° Northeast 457 526 41,000  Level Los Angeles Center
Thu 04:51:08 PM 36.0281 -115.2328 50° Northeast 451 519 41,000  Level Los Angeles Center
Thu 04:52:10 PM 36.1094 -115.1178 49° Northeast 450 518 41,000  Level Los Angeles Center
Thu 04:53:11 PM 36.1794 -115.0297 45° Northeast 452 520 41,000  Level Los Angeles Center
Thu 04:54:14 PM 36.2850 -114.8975 45° Northeast 453 521 41,000  Level Los Angeles Center
Thu 04:55:16 PM 36.3722 -114.7867 46° Northeast 453 521 41,000  Level Los Angeles Center
Thu 04:56:18 PM 36.4775 -114.6492 46° Northeast 458 527 41,000  Level Los Angeles Center
Thu 04:57:20 PM 36.5617 -114.5381 47° Northeast 449 517 41,000  Level Los Angeles Center
Thu 04:58:23 PM 36.6481 -114.4247 46° Northeast 452 520 41,000  Level Los Angeles Center
Thu 04:59:25 PM 36.7344 -114.3117 46° Northeast 452 520 41,000  Level Los Angeles Center
Thu 05:00:27 PM 36.8047 -114.1853 55° Northeast 446 513 41,000  Level Los Angeles Center
Thu 05:01:29 PM 36.8689 -114.0525 59° Northeast 448 516 41,000  Level Los Angeles Center
Thu 05:02:31 PM 36.9450 -113.8914 59° Northeast 449 517 41,000  Level Los Angeles Center
Thu 05:03:33 PM 37.0028 -113.7722 59° Northeast 447 514 41,000  Level Los Angeles Center
Thu 05:04:35 PM 37.0667 -113.6400 59° Northeast 445 512 41,000  Level Los Angeles Center
Thu 05:05:37 PM 37.1586 -113.4975 51° Northeast 439 505 41,000  Level Los Angeles Center
Thu 05:06:39 PM 37.2483 -113.3933 43° Northeast 439 505 41,000  Level Los Angeles Center
Thu 05:07:41 PM 37.3375 -113.2894 43° Northeast 438 504 41,000  Level Los Angeles Center
Thu 05:08:44 PM 37.4261 -113.1858 43° Northeast 435 501 41,000  Level Los Angeles Center
Thu 05:09:46 PM 37.5092 -113.0750 47° Northeast 436 502 41,000  Level Los Angeles Center
Thu 05:10:48 PM 37.5950 -112.9358 52° Northeast 453 521 41,000  Level Los Angeles Center
Thu 05:12:04 PM 37.6864 -112.7889 52° Northeast 457 526 41,000  Level Salt Lake Center
Thu 05:13:06 PM 37.7728 -112.6419 53° Northeast 441 507 41,000  Level Salt Lake Center
Thu 05:14:08 PM 37.8461 -112.5172 53° Northeast 440 506 41,000  Level Salt Lake Center
Thu 05:15:10 PM 37.9150 -112.3881 56° Northeast 442 509 41,000  Level Salt Lake Center
Thu 05:16:12 PM 37.9578 -112.2400 70° East 443 510 41,000  Level Salt Lake Center
Thu 05:17:14 PM 38.0025 -112.0947 69° East 443 510 41,000  Level Salt Lake Center
Thu 05:18:16 PM 38.0467 -111.9514 69° East 438 504 41,000  Level Salt Lake Center
Thu 05:19:18 PM 38.0986 -111.7750 69° East 444 511 41,000  Level Salt Lake Center
Thu 05:20:20 PM 38.1428 -111.6261 69° East 450 518 41,000  Level Salt Lake Center
Thu 05:21:22 PM 38.1881 -111.4817 68° East 442 509 41,000  Level Salt Lake Center
Thu 05:22:24 PM 38.2308 -111.3369 69° East 438 504 41,000  Level Salt Lake Center
Thu 05:23:26 PM 38.2739 -111.1908 69° East 441 507 41,000  Level Salt Lake Center
Thu 05:24:28 PM 38.3169 -111.0453 69° East 440 506 41,000  Level Salt Lake Center
Thu 05:25:30 PM 38.3633 -110.8869 69° East 436 502 41,000  Level Salt Lake Center
Thu 05:26:32 PM 38.4103 -110.7239 70° East 438 504 41,000  Level Salt Lake Center
Thu 05:27:34 PM 38.4564 -110.5867 67° East 440 506 41,000  Level Salt Lake Center
Thu 05:28:36 PM 38.5111 -110.4289 66° East 436 502 41,000  Level Salt Lake Center
Thu 05:29:39 PM 38.5578 -110.2928 66° East 437 503 41,000  Level Salt Lake Center
Thu 05:30:41 PM 38.6133 -110.1333 66° East 440 506 41,000  Level Salt Lake Center
Thu 05:31:43 PM 38.6594 -109.9969 67° East 437 503 41,000  Level Salt Lake Center
Thu 05:32:45 PM 38.7058 -109.8597 67° East 439 505 41,000  Level Salt Lake Center
Thu 05:33:47 PM 38.7592 -109.7017 67° East 436 502 41,000 -532 Level Salt Lake Center
Thu 05:34:49 PM 38.8064 -109.5622 66° East 442 509 39,900 -1,210 Descending Salt Lake Center
Thu 05:35:51 PM 38.8619 -109.3944 67° East 456 525 38,500 -1,306 Descending Salt Lake Center
Thu 05:36:53 PM 38.9097 -109.2497 67° East 459 528 37,200 -1,306 Descending Salt Lake Center
Thu 05:37:55 PM 38.9653 -109.0803 67° East 463 533 35,800 -1,306 Descending Salt Lake Center
Thu 05:38:57 PM 39.0128 -108.9367 67° East 459 528 34,500 -1,344 Descending Salt Lake Center
Thu 05:40:00 PM 39.0703 -108.7664 66° East 465 535 33,000 -1,306 Descending Salt Lake Center
Thu 05:41:01 PM 39.1053 -108.6128 74° East 474 545 31,800 -1,366 Descending Salt Lake Center
Thu 05:42:03 PM 39.1336 -108.4242 79° East 482 555 30,200 -1,403 Descending Salt Lake Center
Thu 05:43:05 PM 39.1583 -108.2608 79° East 485 558 28,900 -1,355 Descending Salt Lake Center
Thu 05:44:07 PM 39.1875 -108.0711 79° East 486 559 27,400 -1,105 Descending Salt Lake Center
Thu 05:45:37 PM 39.2797 -107.8494 62° Northeast 491 565 26,100 -1,224 Descending Denver Center
Thu 05:46:39 PM 39.3594 -107.6967 56° Northeast 470 541 24,300 -1,742 Descending Denver Center
Thu 05:47:41 PM 39.4281 -107.5672 56° Northeast 461 531 22,500 -1,887 Descending Denver Center
Thu 05:48:43 PM 39.5036 -107.4203 56° Northeast 446 513 20,400 -1,694 Descending Denver Center
Thu 05:49:45 PM 39.5683 -107.2947 56° Northeast 442 509 19,000 -1,065 Descending Denver Center
Thu 05:50:47 PM 39.6428 -107.1547 55° Northeast 424 488 18,200 -1,161 Descending Denver Center
Thu 05:51:49 PM 39.6950 -107.0497 57° Northeast 358 412 16,600 -1,306 Descending Denver Center
Thu 05:52:51 PM 39.7269 -106.9422 69° East 325 374 15,500 -1,645 Descending Denver Center
Thu 05:53:53 PM 39.7389 -106.8428 81° East 283 326 13,200 -2,274 Descending Denver Center
Thu 05:54:55 PM 39.7133 -106.7672 114° Southeast 256 295 10,800 -1,839 Descending Denver Center
Thu 05:55:57 PM 39.6608 -106.8031 208° Southwest 221 254 9,400 -1,597 Descending Denver Center
Thu 05:56:59 PM 39.6486 -106.8614 255° West 185 213 7,500 -1,258 Descending Denver Center
Thu 05:58:01 PM 39.6428 -106.9142 262° West 157 181 6,800 -677 Descending Denver Center

Login

Don't have an account? Register now (free) for customized features, flight alerts, and more!